sensor_id;sensor_type;location;lat;lon;timestamp;pressure;altitude;pressure_sealevel;temperature;humidity
73981;BME280;62348;51.412;5.436;2023-12-22T00:02:03;100153.47;;;6.19;100.00
73981;BME280;62348;51.412;5.436;2023-12-22T00:04:28;100161.78;;;6.17;100.00
73981;BME280;62348;51.412;5.436;2023-12-22T00:06:54;100174.41;;;6.17;100.00
73981;BME280;62348;51.412;5.436;2023-12-22T00:09:20;100170.06;;;6.16;100.00
73981;BME280;62348;51.412;5.436;2023-12-22T00:11:46;100174.41;;;6.17;100.00
73981;BME280;62348;51.412;5.436;2023-12-22T00:14:11;100172.75;;;6.16;100.00
73981;BME280;62348;51.412;5.436;2023-12-22T00:16:37;100161.78;;;6.17;100.00
73981;BME280;62348;51.412;5.436;2023-12-22T00:19:03;100168.75;;;6.18;100.00
73981;BME280;62348;51.412;5.436;2023-12-22T00:21:29;100160.22;;;6.21;100.00
73981;BME280;62348;51.412;5.436;2023-12-22T00:23:54;100154.38;;;6.24;100.00
73981;BME280;62348;51.412;5.436;2023-12-22T00:26:20;100159.22;;;6.28;100.00
73981;BME280;62348;51.412;5.436;2023-12-22T00:28:45;100168.91;;;6.29;100.00
73981;BME280;62348;51.412;5.436;2023-12-22T00:31:10;100171.59;;;6.29;100.00
73981;BME280;62348;51.412;5.436;2023-12-22T00:33:38;100173.47;;;6.28;100.00
73981;BME280;62348;51.412;5.436;2023-12-22T00:36:03;100198.19;;;6.30;100.00
73981;BME280;62348;51.412;5.436;2023-12-22T00:38:29;100200.38;;;6.33;100.00
73981;BME280;62348;51.412;5.436;2023-12-22T00:40:55;100193.97;;;6.34;100.00
73981;BME280;62348;51.412;5.436;2023-12-22T00:43:20;100203.38;;;6.37;100.00
73981;BME280;62348;51.412;5.436;2023-12-22T00:45:46;100207.38;;;6.34;100.00
73981;BME280;62348;51.412;5.436;2023-12-22T00:48:11;100200.13;;;6.35;100.00
73981;BME280;62348;51.412;5.436;2023-12-22T00:50:36;100203.38;;;6.37;100.00
73981;BME280;62348;51.412;5.436;2023-12-22T00:53:02;100195.56;;;6.35;100.00
73981;BME280;62348;51.412;5.436;2023-12-22T00:55:27;100206.63;;;6.39;100.00
73981;BME280;62348;51.412;5.436;2023-12-22T00:57:53;100193.19;;;6.39;100.00
73981;BME280;62348;51.412;5.436;2023-12-22T01:00:18;100215.25;;;6.41;100.00
73981;BME280;62348;51.412;5.436;2023-12-22T01:02:44;100226.88;;;6.47;100.00
73981;BME280;62348;51.412;5.436;2023-12-22T01:05:09;100210.50;;;6.48;100.00
73981;BME280;62348;51.412;5.436;2023-12-22T01:07:35;100225.81;;;6.48;100.00
73981;BME280;62348;51.412;5.436;2023-12-22T01:10:01;100228.06;;;6.56;100.00
73981;BME280;62348;51.412;5.436;2023-12-22T01:12:28;100264.31;;;6.53;100.00
73981;BME280;62348;51.412;5.436;2023-12-22T01:14:55;100225.38;;;6.56;100.00
73981;BME280;62348;51.412;5.436;2023-12-22T01:17:20;100222.66;;;6.51;100.00
73981;BME280;62348;51.412;5.436;2023-12-22T01:19:46;100222.38;;;6.52;100.00
73981;BME280;62348;51.412;5.436;2023-12-22T01:22:11;100226.31;;;6.44;100.00
73981;BME280;62348;51.412;5.436;2023-12-22T01:24:37;100221.44;;;6.41;100.00
73981;BME280;62348;51.412;5.436;2023-12-22T01:27:06;100225.66;;;6.37;100.00
73981;BME280;62348;51.412;5.436;2023-12-22T01:29:31;100231.53;;;6.34;100.00
73981;BME280;62348;51.412;5.436;2023-12-22T01:31:57;100229.91;;;6.33;100.00
73981;BME280;62348;51.412;5.436;2023-12-22T01:34:22;100246.25;;;6.32;100.00
73981;BME280;62348;51.412;5.436;2023-12-22T01:36:47;100247.34;;;6.31;100.00
73981;BME280;62348;51.412;5.436;2023-12-22T01:39:13;100244.88;;;6.29;100.00
73981;BME280;62348;51.412;5.436;2023-12-22T01:41:38;100246.78;;;6.29;100.00
73981;BME280;62348;51.412;5.436;2023-12-22T01:44:04;100245.69;;;6.30;100.00
73981;BME280;62348;51.412;5.436;2023-12-22T01:46:29;100254.59;;;6.30;100.00
73981;BME280;62348;51.412;5.436;2023-12-22T01:48:55;100246.78;;;6.29;100.00
73981;BME280;62348;51.412;5.436;2023-12-22T01:51:21;100252.94;;;6.29;100.00
73981;BME280;62348;51.412;5.436;2023-12-22T01:53:46;100255.88;;;6.28;100.00
73981;BME280;62348;51.412;5.436;2023-12-22T01:56:12;100248.91;;;6.27;100.00
73981;BME280;62348;51.412;5.436;2023-12-22T01:58:37;100257.50;;;6.29;100.00
73981;BME280;62348;51.412;5.436;2023-12-22T02:01:03;100269.38;;;6.33;100.00
73981;BME280;62348;51.412;5.436;2023-12-22T02:03:30;100278.25;;;6.33;100.00
73981;BME280;62348;51.412;5.436;2023-12-22T02:05:55;100288.75;;;6.35;100.00
73981;BME280;62348;51.412;5.436;2023-12-22T02:08:22;100273.44;;;6.35;100.00
73981;BME280;62348;51.412;5.436;2023-12-22T02:10:49;100264.34;;;6.36;100.00
73981;BME280;62348;51.412;5.436;2023-12-22T02:13:14;100274.00;;;6.37;100.00
73981;BME280;62348;51.412;5.436;2023-12-22T02:15:40;100280.19;;;6.38;100.00
73981;BME280;62348;51.412;5.436;2023-12-22T02:18:17;100265.22;;;6.42;100.00
73981;BME280;62348;51.412;5.436;2023-12-22T02:20:45;100242.94;;;6.41;100.00
73981;BME280;62348;51.412;5.436;2023-12-22T02:23:11;100242.66;;;6.43;100.00
73981;BME280;62348;51.412;5.436;2023-12-22T02:25:36;100252.84;;;6.41;100.00
73981;BME280;62348;51.412;5.436;2023-12-22T02:28:04;100243.50;;;6.43;100.00
73981;BME280;62348;51.412;5.436;2023-12-22T02:30:56;100259.09;;;6.47;100.00
73981;BME280;62348;51.412;5.436;2023-12-22T02:33:23;100258.03;;;6.48;100.00
73981;BME280;62348;51.412;5.436;2023-12-22T02:35:52;100258.03;;;6.48;100.00
73981;BME280;62348;51.412;5.436;2023-12-22T02:38:21;100276.59;;;6.49;100.00
73981;BME280;62348;51.412;5.436;2023-12-22T02:40:47;100288.16;;;6.50;100.00
73981;BME280;62348;51.412;5.436;2023-12-22T02:43:12;100300.53;;;6.51;100.00
73981;BME280;62348;51.412;5.436;2023-12-22T02:45:38;100320.63;;;6.48;100.00
73981;BME280;62348;51.412;5.436;2023-12-22T02:48:03;100308.44;;;6.40;100.00
73981;BME280;62348;51.412;5.436;2023-12-22T02:50:29;100300.47;;;6.29;100.00
73981;BME280;62348;51.412;5.436;2023-12-22T02:52:54;100305.44;;;6.20;100.00
73981;BME280;62348;51.412;5.436;2023-12-22T02:55:19;100299.41;;;6.13;100.00
73981;BME280;62348;51.412;5.436;2023-12-22T02:57:45;100304.16;;;6.05;100.00
73981;BME280;62348;51.412;5.436;2023-12-22T03:00:11;100287.38;;;5.98;100.00
73981;BME280;62348;51.412;5.436;2023-12-22T03:02:36;100282.69;;;5.94;100.00
73981;BME280;62348;51.412;5.436;2023-12-22T03:05:02;100276.47;;;5.88;100.00
73981;BME280;62348;51.412;5.436;2023-12-22T03:07:27;100269.13;;;5.83;100.00
73981;BME280;62348;51.412;5.436;2023-12-22T03:09:52;100265.88;;;5.81;100.00
73981;BME280;62348;51.412;5.436;2023-12-22T03:12:18;100257.25;;;5.79;100.00
73981;BME280;62348;51.412;5.436;2023-12-22T03:14:43;100264.75;;;5.77;100.00
73981;BME280;62348;51.412;5.436;2023-12-22T03:17:08;100245.41;;;5.75;100.00
73981;BME280;62348;51.412;5.436;2023-12-22T03:19:36;100252.59;;;5.75;100.00
73981;BME280;62348;51.412;5.436;2023-12-22T03:22:02;100255.28;;;5.75;100.00
73981;BME280;62348;51.412;5.436;2023-12-22T03:24:27;100252.88;;;5.73;100.00
73981;BME280;62348;51.412;5.436;2023-12-22T03:26:53;100246.69;;;5.73;100.00
73981;BME280;62348;51.412;5.436;2023-12-22T03:29:19;100233.03;;;5.74;100.00
73981;BME280;62348;51.412;5.436;2023-12-22T03:31:45;100233.81;;;5.75;100.00
73981;BME280;62348;51.412;5.436;2023-12-22T03:34:11;100229.63;;;5.79;100.00
73981;BME280;62348;51.412;5.436;2023-12-22T03:36:36;100227.28;;;5.82;100.00
73981;BME280;62348;51.412;5.436;2023-12-22T03:39:02;100234.34;;;5.89;100.00
73981;BME280;62348;51.412;5.436;2023-12-22T03:41:29;100235.72;;;5.91;100.00
73981;BME280;62348;51.412;5.436;2023-12-22T03:43:55;100235.22;;;5.94;100.00
73981;BME280;62348;51.412;5.436;2023-12-22T03:46:20;100227.03;;;6.01;100.00
73981;BME280;62348;51.412;5.436;2023-12-22T03:48:45;100228.75;;;6.07;100.00
73981;BME280;62348;51.412;5.436;2023-12-22T03:51:12;100232.81;;;6.10;100.00
73981;BME280;62348;51.412;5.436;2023-12-22T03:53:38;100243.03;;;6.13;100.00
73981;BME280;62348;51.412;5.436;2023-12-22T03:56:04;100245.56;;;6.19;100.00
73981;BME280;62348;51.412;5.436;2023-12-22T03:58:29;100244.25;;;6.22;100.00
73981;BME280;62348;51.412;5.436;2023-12-22T04:00:56;100245.41;;;6.26;100.00
73981;BME280;62348;51.412;5.436;2023-12-22T04:03:21;100245.69;;;6.30;100.00
73981;BME280;62348;51.412;5.436;2023-12-22T04:05:46;100249.25;;;6.35;100.00
73981;BME280;62348;51.412;5.436;2023-12-22T04:08:12;100250.91;;;6.36;100.00
73981;BME280;62348;51.412;5.436;2023-12-22T04:10:37;100252.84;;;6.41;100.00
73981;BME280;62348;51.412;5.436;2023-12-22T04:13:03;100257.72;;;6.44;100.00
73981;BME280;62348;51.412;5.436;2023-12-22T04:15:28;100267.16;;;6.47;100.00
73981;BME280;62348;51.412;5.436;2023-12-22T04:17:53;100261.53;;;6.48;100.00
73981;BME280;62348;51.412;5.436;2023-12-22T04:20:19;100265.09;;;6.54;100.00
73981;BME280;62348;51.412;5.436;2023-12-22T04:22:44;100271.03;;;6.56;100.00
73981;BME280;62348;51.412;5.436;2023-12-22T04:25:10;100270.00;;;6.57;100.00
73981;BME280;62348;51.412;5.436;2023-12-22T04:27:35;100273.81;;;6.61;100.00
73981;BME280;62348;51.412;5.436;2023-12-22T04:30:01;100280.53;;;6.63;100.00
73981;BME280;62348;51.412;5.436;2023-12-22T04:32:26;100284.06;;;6.64;100.00
73981;BME280;62348;51.412;5.436;2023-12-22T04:34:52;100281.09;;;6.65;100.00
73981;BME280;62348;51.412;5.436;2023-12-22T04:37:17;100281.66;;;6.68;100.00
73981;BME280;62348;51.412;5.436;2023-12-22T04:39:43;100285.19;;;6.68;100.00
73981;BME280;62348;51.412;5.436;2023-12-22T04:42:08;100289.25;;;6.71;100.00
73981;BME280;62348;51.412;5.436;2023-12-22T04:44:33;100288.19;;;6.72;100.00
73981;BME280;62348;51.412;5.436;2023-12-22T04:46:59;100298.44;;;6.75;100.00
73981;BME280;62348;51.412;5.436;2023-12-22T04:49:25;100283.69;;;6.77;100.00
73981;BME280;62348;51.412;5.436;2023-12-22T04:51:50;100293.38;;;6.78;100.00
73981;BME280;62348;51.412;5.436;2023-12-22T04:54:15;100284.00;;;6.81;100.00
73981;BME280;62348;51.412;5.436;2023-12-22T04:56:41;100298.03;;;6.83;100.00
73981;BME280;62348;51.412;5.436;2023-12-22T04:59:06;100289.38;;;6.81;100.00
73981;BME280;62348;51.412;5.436;2023-12-22T05:01:32;100282.13;;;6.81;100.00
73981;BME280;62348;51.412;5.436;2023-12-22T05:03:57;100303.13;;;6.84;100.00
73981;BME280;62348;51.412;5.436;2023-12-22T05:06:22;100295.63;;;6.87;100.00
73981;BME280;62348;51.412;5.436;2023-12-22T05:08:48;100306.66;;;6.85;100.00
73981;BME280;62348;51.412;5.436;2023-12-22T05:11:13;100306.66;;;6.85;100.00
73981;BME280;62348;51.412;5.436;2023-12-22T05:13:38;100305.31;;;6.88;100.00
73981;BME280;62348;51.412;5.436;2023-12-22T05:16:05;100312.34;;;6.89;100.00
73981;BME280;62348;51.412;5.436;2023-12-22T05:18:31;100309.66;;;6.89;100.00
73981;BME280;62348;51.412;5.436;2023-12-22T05:20:56;100301.06;;;6.92;100.00
73981;BME280;62348;51.412;5.436;2023-12-22T05:23:22;100302.44;;;6.94;100.00
73981;BME280;62348;51.412;5.436;2023-12-22T05:25:47;100302.75;;;6.98;100.00
73981;BME280;62348;51.412;5.436;2023-12-22T05:28:13;100305.19;;;6.99;100.00
73981;BME280;62348;51.412;5.436;2023-12-22T05:30:38;100296.09;;;7.00;100.00
73981;BME280;62348;51.412;5.436;2023-12-22T05:33:04;100327.81;;;7.03;100.00
73981;BME280;62348;51.412;5.436;2023-12-22T05:35:29;100319.75;;;7.03;100.00
73981;BME280;62348;51.412;5.436;2023-12-22T05:37:54;100319.72;;;6.98;100.00
73981;BME280;62348;51.412;5.436;2023-12-22T05:40:20;100310.78;;;6.93;100.00
73981;BME280;62348;51.412;5.436;2023-12-22T05:42:45;100299.47;;;6.91;100.00
73981;BME280;62348;51.412;5.436;2023-12-22T05:45:12;100304.50;;;6.87;100.00
73981;BME280;62348;51.412;5.436;2023-12-22T05:47:37;100308.50;;;6.84;100.00
73981;BME280;62348;51.412;5.436;2023-12-22T05:50:04;100304.75;;;6.86;100.00
73981;BME280;62348;51.412;5.436;2023-12-22T05:52:29;100290.50;;;6.85;100.00
73981;BME280;62348;51.412;5.436;2023-12-22T05:54:54;100304.19;;;6.83;100.00
73981;BME280;62348;51.412;5.436;2023-12-22T05:57:20;100302.81;;;6.81;100.00
73981;BME280;62348;51.412;5.436;2023-12-22T05:59:45;100302.56;;;6.82;100.00
73981;BME280;62348;51.412;5.436;2023-12-22T06:02:11;100307.13;;;6.82;100.00
73981;BME280;62348;51.412;5.436;2023-12-22T06:04:36;100301.75;;;6.82;100.00
73981;BME280;62348;51.412;5.436;2023-12-22T06:07:01;100289.13;;;6.82;100.00
73981;BME280;62348;51.412;5.436;2023-12-22T06:09:27;100292.66;;;6.83;100.00
73981;BME280;62348;51.412;5.436;2023-12-22T06:11:53;100285.38;;;6.83;100.00
73981;BME280;62348;51.412;5.436;2023-12-22T06:14:18;100290.25;;;6.87;100.00
73981;BME280;62348;51.412;5.436;2023-12-22T06:16:44;100290.25;;;6.87;100.00
73981;BME280;62348;51.412;5.436;2023-12-22T06:19:09;100299.94;;;6.88;100.00
73981;BME280;62348;51.412;5.436;2023-12-22T06:21:38;100295.38;;;6.88;100.00
73981;BME280;62348;51.412;5.436;2023-12-22T06:24:04;100295.13;;;6.90;100.00
73981;BME280;62348;51.412;5.436;2023-12-22T06:26:29;100288.72;;;6.91;100.00
73981;BME280;62348;51.412;5.436;2023-12-22T06:28:55;100295.44;;;6.93;100.00
73981;BME280;62348;51.412;5.436;2023-12-22T06:31:21;100286.31;;;6.94;100.00
73981;BME280;62348;51.412;5.436;2023-12-22T06:33:48;100279.88;;;6.95;100.00
73981;BME280;62348;51.412;5.436;2023-12-22T06:36:24;100284.44;;;6.95;100.00
73981;BME280;62348;51.412;5.436;2023-12-22T06:38:53;100296.56;;;6.97;100.00
73981;BME280;62348;51.412;5.436;2023-12-22T06:41:23;100286.38;;;6.99;100.00
73981;BME280;62348;51.412;5.436;2023-12-22T06:43:49;100295.56;;;7.03;100.00
73981;BME280;62348;51.412;5.436;2023-12-22T06:46:20;100316.25;;;7.03;100.00
73981;BME280;62348;51.412;5.436;2023-12-22T06:48:48;100317.06;;;7.03;100.00
73981;BME280;62348;51.412;5.436;2023-12-22T06:51:17;100328.13;;;7.07;100.00
73981;BME280;62348;51.412;5.436;2023-12-22T06:53:44;100317.13;;;7.09;100.00
73981;BME280;62348;51.412;5.436;2023-12-22T06:56:17;100328.22;;;7.12;100.00
73981;BME280;62348;51.412;5.436;2023-12-22T06:58:43;100319.09;;;7.13;100.00
73981;BME280;62348;51.412;5.436;2023-12-22T07:01:08;100314.00;;;7.17;100.00
73981;BME280;62348;51.412;5.436;2023-12-22T07:03:34;100318.56;;;7.16;100.00
73981;BME280;62348;51.412;5.436;2023-12-22T07:05:59;100309.47;;;7.17;100.00
73981;BME280;62348;51.412;5.436;2023-12-22T07:08:25;100303.81;;;7.19;100.00
73981;BME280;62348;51.412;5.436;2023-12-22T07:10:50;100304.41;;;7.21;100.00
73981;BME280;62348;51.412;5.436;2023-12-22T07:13:15;100308.69;;;7.22;100.00
73981;BME280;62348;51.412;5.436;2023-12-22T07:15:41;100313.00;;;7.23;100.00
73981;BME280;62348;51.412;5.436;2023-12-22T07:18:06;100308.44;;;7.23;100.00
73981;BME280;62348;51.412;5.436;2023-12-22T07:20:31;100316.25;;;7.25;100.00
73981;BME280;62348;51.412;5.436;2023-12-22T07:22:57;100314.38;;;7.26;100.00
73981;BME280;62348;51.412;5.436;2023-12-22T07:25:22;100310.06;;;7.24;100.00
73981;BME280;62348;51.412;5.436;2023-12-22T07:27:48;100305.81;;;7.29;100.00
73981;BME280;62348;51.412;5.436;2023-12-22T07:30:13;100302.06;;;7.30;100.00
73981;BME280;62348;51.412;5.436;2023-12-22T07:32:42;100293.97;;;7.30;100.00
73981;BME280;62348;51.412;5.436;2023-12-22T07:35:09;100288.59;;;7.30;100.00
73981;BME280;62348;51.412;5.436;2023-12-22T07:37:35;100300.75;;;7.32;100.00
73981;BME280;62348;51.412;5.436;2023-12-22T07:40:00;100296.75;;;7.35;100.00
73981;BME280;62348;51.412;5.436;2023-12-22T07:42:26;100300.78;;;7.37;100.00
73981;BME280;62348;51.412;5.436;2023-12-22T07:44:51;100303.47;;;7.37;100.00
73981;BME280;62348;51.412;5.436;2023-12-22T07:47:16;100296.50;;;7.36;100.00
73981;BME280;62348;51.412;5.436;2023-12-22T07:49:42;100296.22;;;7.38;100.00
73981;BME280;62348;51.412;5.436;2023-12-22T07:52:07;100293.28;;;7.39;100.00
73981;BME280;62348;51.412;5.436;2023-12-22T07:54:33;100289.28;;;7.42;100.00
73981;BME280;62348;51.412;5.436;2023-12-22T07:56:58;100293.59;;;7.43;100.00
73981;BME280;62348;51.412;5.436;2023-12-22T07:59:23;100289.06;;;7.49;100.00
73981;BME280;62348;51.412;5.436;2023-12-22T08:01:49;100283.13;;;7.47;100.00
73981;BME280;62348;51.412;5.436;2023-12-22T08:04:15;100289.31;;;7.47;100.00
73981;BME280;62348;51.412;5.436;2023-12-22T08:06:40;100282.63;;;7.50;100.00
73981;BME280;62348;51.412;5.436;2023-12-22T08:09:06;100290.97;;;7.48;100.00
73981;BME280;62348;51.412;5.436;2023-12-22T08:11:31;100291.75;;;7.49;100.00
73981;BME280;62348;51.412;5.436;2023-12-22T08:13:57;100294.44;;;7.49;100.00
73981;BME280;62348;51.412;5.436;2023-12-22T08:16:23;100301.47;;;7.50;100.00
73981;BME280;62348;51.412;5.436;2023-12-22T08:18:48;100297.94;;;7.49;100.00
73981;BME280;62348;51.412;5.436;2023-12-22T08:21:14;100298.53;;;7.51;100.00
73981;BME280;62348;51.412;5.436;2023-12-22T08:23:40;100295.56;;;7.53;100.00
73981;BME280;62348;51.412;5.436;2023-12-22T08:26:05;100295.06;;;7.56;100.00
73981;BME280;62348;51.412;5.436;2023-12-22T08:28:31;100300.44;;;7.56;100.00
73981;BME280;62348;51.412;5.436;2023-12-22T08:30:56;100296.44;;;7.58;100.00
73981;BME280;62348;51.412;5.436;2023-12-22T08:33:21;100301.00;;;7.58;100.00
73981;BME280;62348;51.412;5.436;2023-12-22T08:35:47;100290.00;;;7.59;100.00
73981;BME280;62348;51.412;5.436;2023-12-22T08:38:12;100291.88;;;7.59;100.00
73981;BME280;62348;51.412;5.436;2023-12-22T08:40:38;100284.63;;;7.59;100.00
73981;BME280;62348;51.412;5.436;2023-12-22T08:43:04;100293.25;;;7.61;100.00
73981;BME280;62348;51.412;5.436;2023-12-22T08:45:31;100285.16;;;7.61;100.00
73981;BME280;62348;51.412;5.436;2023-12-22T08:47:57;100280.59;;;7.62;100.00
73981;BME280;62348;51.412;5.436;2023-12-22T08:50:23;100284.41;;;7.66;100.00
73981;BME280;62348;51.412;5.436;2023-12-22T08:52:48;100289.53;;;7.68;100.00
73981;BME280;62348;51.412;5.436;2023-12-22T08:55:13;100277.41;;;7.65;100.00
73981;BME280;62348;51.412;5.436;2023-12-22T08:57:39;100279.00;;;7.66;100.00
73981;BME280;62348;51.412;5.436;2023-12-22T09:00:05;100278.22;;;7.66;100.00
73981;BME280;62348;51.412;5.436;2023-12-22T09:02:31;100284.41;;;7.66;100.00
73981;BME280;62348;51.412;5.436;2023-12-22T09:04:56;100269.34;;;7.65;100.00
73981;BME280;62348;51.412;5.436;2023-12-22T09:07:21;100275.50;;;7.66;100.00
73981;BME280;62348;51.412;5.436;2023-12-22T09:09:48;100271.50;;;7.68;100.00
73981;BME280;62348;51.412;5.436;2023-12-22T09:12:13;100271.78;;;7.67;100.00
73981;BME280;62348;51.412;5.436;2023-12-22T09:14:38;100286.84;;;7.68;100.00
73981;BME280;62348;51.412;5.436;2023-12-22T09:17:04;100277.72;;;7.69;100.00
73981;BME280;62348;51.412;5.436;2023-12-22T09:19:32;100273.44;;;7.73;100.00
73981;BME280;62348;51.412;5.436;2023-12-22T09:21:58;100278.56;;;7.74;100.00
73981;BME280;62348;51.412;5.436;2023-12-22T09:24:23;100271.03;;;7.76;100.00
73981;BME280;62348;51.412;5.436;2023-12-22T09:26:49;100275.66;;;7.81;100.00
73981;BME280;62348;51.412;5.436;2023-12-22T09:29:16;100273.81;;;7.87;100.00
73981;BME280;62348;51.412;5.436;2023-12-22T09:31:42;100278.41;;;7.86;100.00
73981;BME280;62348;51.412;5.436;2023-12-22T09:34:07;100267.94;;;7.90;100.00
73981;BME280;62348;51.412;5.436;2023-12-22T09:36:32;100267.41;;;7.93;100.00
73981;BME280;62348;51.412;5.436;2023-12-22T09:38:58;100266.34;;;7.94;100.00
73981;BME280;62348;51.412;5.436;2023-12-22T09:41:24;100256.44;;;7.99;100.00
73981;BME280;62348;51.412;5.436;2023-12-22T09:43:49;100266.09;;;8.00;100.00
73981;BME280;62348;51.412;5.436;2023-12-22T09:46:18;100262.09;;;8.03;100.00
73981;BME280;62348;51.412;5.436;2023-12-22T09:48:45;100268.84;;;8.06;100.00
73981;BME280;62348;51.412;5.436;2023-12-22T09:51:13;100262.16;;;8.08;100.00
73981;BME280;62348;51.412;5.436;2023-12-22T09:53:40;100256.25;;;8.11;100.00
73981;BME280;62348;51.412;5.436;2023-12-22T09:56:07;100266.50;;;8.14;100.00
73981;BME280;62348;51.412;5.436;2023-12-22T09:58:33;100247.41;;;8.16;100.00
73981;BME280;62348;51.412;5.436;2023-12-22T10:01:02;100245.75;;;8.15;100.00
73981;BME280;62348;51.412;5.436;2023-12-22T10:03:31;100247.69;;;8.19;100.00
73981;BME280;62348;51.412;5.436;2023-12-22T10:05:58;100242.84;;;8.21;100.00
73981;BME280;62348;51.412;5.436;2023-12-22T10:08:25;100245.56;;;8.27;100.00
73981;BME280;62348;51.412;5.436;2023-12-22T10:10:52;100247.50;;;8.31;100.00
73981;BME280;62348;51.412;5.436;2023-12-22T10:13:18;100253.72;;;8.37;100.00
73981;BME280;62348;51.412;5.436;2023-12-22T10:15:43;100241.34;;;8.41;100.00
73981;BME280;62348;51.412;5.436;2023-12-22T10:18:10;100244.66;;;8.48;100.00
73981;BME280;62348;51.412;5.436;2023-12-22T10:20:36;100236.56;;;8.48;100.00
73981;BME280;62348;51.412;5.436;2023-12-22T10:23:02;100243.31;;;8.51;100.00
73981;BME280;62348;51.412;5.436;2023-12-22T10:25:28;100239.28;;;8.53;100.00
73981;BME280;62348;51.412;5.436;2023-12-22T10:27:58;100234.19;;;8.57;100.00
73981;BME280;62348;51.412;5.436;2023-12-22T10:30:23;100242.00;;;8.58;100.00
73981;BME280;62348;51.412;5.436;2023-12-22T10:32:51;100230.72;;;8.62;100.00
73981;BME280;62348;51.412;5.436;2023-12-22T10:35:17;100234.50;;;8.66;100.00
73981;BME280;62348;51.412;5.436;2023-12-22T10:37:43;100236.94;;;8.67;100.00
73981;BME280;62348;51.412;5.436;2023-12-22T10:40:09;100244.75;;;8.69;100.00
73981;BME280;62348;51.412;5.436;2023-12-22T10:42:35;100245.56;;;8.69;100.00
73981;BME280;62348;51.412;5.436;2023-12-22T10:45:01;100246.13;;;8.71;100.00
73981;BME280;62348;51.412;5.436;2023-12-22T10:47:28;100254.75;;;8.73;100.00
73981;BME280;62348;51.412;5.436;2023-12-22T10:49:54;100255.56;;;8.74;100.00
73981;BME280;62348;51.412;5.436;2023-12-22T10:52:19;100253.41;;;8.76;100.00
73981;BME280;62348;51.412;5.436;2023-12-22T10:54:45;100256.09;;;8.76;100.00
73981;BME280;62348;51.412;5.436;2023-12-22T10:57:11;100267.72;;;8.76;100.00
73981;BME280;62348;51.412;5.436;2023-12-22T10:59:43;100254.78;;;8.78;100.00
73981;BME280;62348;51.412;5.436;2023-12-22T11:02:17;100245.59;;;8.79;100.00
73981;BME280;62348;51.412;5.436;2023-12-22T11:04:57;100245.34;;;8.81;100.00
73981;BME280;62348;51.412;5.436;2023-12-22T11:07:25;100256.66;;;8.83;100.00
73981;BME280;62348;51.412;5.436;2023-12-22T11:09:59;100267.19;;;8.85;100.00
73981;BME280;62348;51.412;5.436;2023-12-22T11:12:28;100257.22;;;8.85;100.00
73981;BME280;62348;51.412;5.436;2023-12-22T11:14:55;100258.56;;;8.88;100.00
73981;BME280;62348;51.412;5.436;2023-12-22T11:17:22;100256.44;;;8.90;100.00
73981;BME280;62348;51.412;5.436;2023-12-22T11:19:53;100239.97;;;8.91;100.00
73981;BME280;62348;51.412;5.436;2023-12-22T11:22:20;100241.34;;;8.94;100.00
73981;BME280;62348;51.412;5.436;2023-12-22T11:24:47;100248.34;;;8.95;100.00
73981;BME280;62348;51.412;5.436;2023-12-22T11:27:19;100242.44;;;8.98;100.00
73981;BME280;62348;51.412;5.436;2023-12-22T11:29:47;100242.19;;;8.99;100.00
73981;BME280;62348;51.412;5.436;2023-12-22T11:32:15;100236.25;;;9.03;100.00
73981;BME280;62348;51.412;5.436;2023-12-22T11:34:42;100226.00;;;9.05;100.00
73981;BME280;62348;51.412;5.436;2023-12-22T11:37:11;100228.72;;;9.10;100.00
73981;BME280;62348;51.412;5.436;2023-12-22T11:39:37;100229.53;;;9.10;100.00
73981;BME280;62348;51.412;5.436;2023-12-22T11:42:04;100243.84;;;9.11;100.00
73981;BME280;62348;51.412;5.436;2023-12-22T11:44:31;100238.16;;;9.12;100.00
73981;BME280;62348;51.412;5.436;2023-12-22T11:47:05;100229.25;;;9.12;100.00
73981;BME280;62348;51.412;5.436;2023-12-22T11:49:35;100217.41;;;9.13;100.00
73981;BME280;62348;51.412;5.436;2023-12-22T11:52:16;100234.13;;;9.15;100.00
73981;BME280;62348;51.412;5.436;2023-12-22T11:54:53;100216.84;;;9.16;100.00
73981;BME280;62348;51.412;5.436;2023-12-22T12:00:06;100213.13;;;9.22;100.00
73981;BME280;62348;51.412;5.436;2023-12-22T12:02:36;100214.97;;;9.22;100.00
73981;BME280;62348;51.412;5.436;2023-12-22T12:05:03;100219.84;;;9.25;100.00
73981;BME280;62348;51.412;5.436;2023-12-22T12:07:42;100230.66;;;9.25;100.00
73981;BME280;62348;51.412;5.436;2023-12-22T12:13:05;100208.00;;;9.31;100.00
73981;BME280;62348;51.412;5.436;2023-12-22T12:15:33;100202.06;;;9.29;100.00
73981;BME280;62348;51.412;5.436;2023-12-22T12:17:59;100205.84;;;9.28;100.00
73981;BME280;62348;51.412;5.436;2023-12-22T12:20:25;100199.09;;;9.30;100.00
73981;BME280;62348;51.412;5.436;2023-12-22T12:22:52;100202.06;;;9.29;100.00
73981;BME280;62348;51.412;5.436;2023-12-22T12:25:22;100205.84;;;9.33;100.00
73981;BME280;62348;51.412;5.436;2023-12-22T12:27:50;100193.44;;;9.32;100.00
73981;BME280;62348;51.412;5.436;2023-12-22T12:30:16;100185.34;;;9.32;100.00
73981;BME280;62348;51.412;5.436;2023-12-22T12:32:42;100188.03;;;9.32;100.00
73981;BME280;62348;51.412;5.436;2023-12-22T12:35:11;100193.97;;;9.34;100.00
73981;BME280;62348;51.412;5.436;2023-12-22T12:37:38;100189.38;;;9.34;100.00
73981;BME280;62348;51.412;5.436;2023-12-22T12:40:08;100191.00;;;9.35;100.00
73981;BME280;62348;51.412;5.436;2023-12-22T12:42:36;100195.31;;;9.36;100.00
73981;BME280;62348;51.412;5.436;2023-12-22T12:45:04;100175.38;;;9.37;100.00
73981;BME280;62348;51.412;5.436;2023-12-22T12:47:30;100195.31;;;9.36;100.00
73981;BME280;62348;51.412;5.436;2023-12-22T12:49:57;100189.38;;;9.34;100.00
73981;BME280;62348;51.412;5.436;2023-12-22T12:52:23;100186.16;;;9.37;100.00